Chicago, IL (60644)

8:49 PM CDT on September 30, 2014 (GMT -0500)
Oak Park, IL | Change Station
CLOSE
Current Station
Personal Weather Station
Location: Oak Park, IL
Elevation: 617 ft
Nearby Weather Stations

Elev 617 ft 41.87 °N, 87.79 °W | Updated 5 seconds ago

Overcast
Overcast
55.1 °F
Feels Like 55.1 °F
N
0.0
Wind Variable Wind from ESE
Gusts 4.0 mph

Today
High -- | Low -- °F
--% Chance of Precip.
Yesterday
High -- | Low -- °F
Precip. -- in
6:46 AM 6:34 PM
Waxing Crescent, 42% visible
Pressure 30.01 in
Visibility 9.0 miles
Clouds Overcast 1700 ft
Dew Point 50 °F
Humidity 84%
Rainfall 0.00 in
Snow Depth Not available.
UV 0 out of 12
Pollen 2.90 out of 12
Ozone Good
PM2.5 Good
Flu Activity Not available.
METAR KMDW 010053Z 03003KT 9SM -DZ OVC017 13/11 A3001 RMK DZB51 SLP162 P0000 T01330106

More Conditions Fewer Conditions

Pressure 30.01 in
Visibility 9.0 miles
Clouds Overcast 1700 ft
Dew Point 50 °F
Humidity 84%
Rainfall 0.00 in
Snow Depth Not available.
UV 0 out of 12
Pollen 2.90 out of 12
Ozone Good
PM2.5 Good
Flu Activity Not available.
METAR KMDW 010053Z 03003KT 9SM -DZ OVC017 13/11 A3001 RMK DZB51 SLP162 P0000 T01330106

More Conditions Fewer Conditions

10-Day Weather Forecast

Almanac

Astronomy

Sep. 30, 2014 Rise Set
Actual Time 6:46 AM CDT 6:34 PM CDT
Civil Twilight 6:19 AM CDT 7:02 PM CDT
Nautical Twilight 5:46 AM CDT 7:34 PM CDT
Astronomical Twilight 5:13 AM CDT 8:07 PM CDT
Moon 12:58 PM CDT (9/30) 11:00 PM CDT (9/30)
Length of Visible Light 12h 43m
Length of Day
11h 47m
Tomorrow will be 2m 47s shorter.
Waxing Crescent, 42% of the Moon is Illuminated
Today
Waxing Crescent
Oct 1
First Quarter
Oct 8
Full
Oct 15
Last Quarter
Oct 23
New

Today's Extremes

State Highs State Lows

Community

WunderPhotos

Upload Photos

1,757,821 photos uploaded!

Nearby

Air Quality

  Air Quality AQ Index Pollutant
Yesterday Moderate
PM2.5
Yesterday Moderate
OZONE
Current Good
PM2.5
Current Good
OZONE
Tuesday Moderate
PM2.5
Wednesday Good
PM2.5
Thursday Moderate
PM2.5
Friday Good
PM2.5
Saturday Good
PM2.5

Snow Depth

Station Depth Elevation
No new snow has been reported.

Earthquake Activity

City Distance Mag. Time & Date
No recent earthquake activity has been reported nearby.
Minimum magnitude displayed is 2.5.

Coastal Water Temperatures

Place Temperature
No Stations Reporting

Nearby Weather Stations